Time;durP1;ratioP1;P1;durP2;ratioP2;P2;SDS_P1;SDS_P2;PMS_P1;PMS_P2;Temp;Humidity;BMP_temperature;BMP_pressure;BME280_temperature;BME280_humidity;BME280_pressure;Samples;Min_cycle;Max_cycle;Signal;HPM_P1;HPM_P2
2023/03/04 00:00:30;;;;;;;20.40;6.05;;;6.70;99.90;;;;;;2035961;29;20043;-73
2023/03/04 00:01:30;;;;;;;25.70;6.75;;;6.70;99.90;;;;;;2037272;29;20127;-73
2023/03/04 00:02:31;;;;;;;15.57;5.85;;;6.70;99.90;;;;;;2037051;29;20060;-73
2023/03/04 00:03:31;;;;;;;28.92;7.45;;;6.70;99.90;;;;;;2036451;29;20147;-73
2023/03/04 00:04:32;;;;;;;20.80;6.25;;;6.70;99.90;;;;;;2038148;29;20074;-73
2023/03/04 00:05:32;;;;;;;19.38;6.40;;;6.70;99.90;;;;;;2036579;29;20078;-73
2023/03/04 00:06:33;;;;;;;14.63;6.07;;;6.70;99.90;;;;;;2034893;29;20035;-73
2023/03/04 00:07:33;;;;;;;18.30;6.03;;;6.70;99.90;;;;;;2035455;29;20028;-73
2023/03/04 00:08:34;;;;;;;17.63;5.78;;;6.70;99.90;;;;;;2035770;29;20036;-73
2023/03/04 00:09:34;;;;;;;19.10;7.07;;;6.70;99.90;;;;;;2037554;29;20040;-73
2023/03/04 00:10:35;;;;;;;20.15;6.60;;;6.70;99.90;;;;;;2036673;29;20067;-73
2023/03/04 00:11:35;;;;;;;20.73;6.28;;;6.70;99.90;;;;;;2036147;29;20024;-73
2023/03/04 00:12:36;;;;;;;22.70;6.55;;;6.70;99.90;;;;;;2038706;29;20026;-73
2023/03/04 00:13:36;;;;;;;23.02;6.72;;;6.70;99.90;;;;;;2036235;29;20020;-73
2023/03/04 00:14:37;;;;;;;15.77;6.35;;;6.70;99.90;;;;;;2037524;29;20042;-73
2023/03/04 00:15:37;;;;;;;20.15;7.10;;;6.80;99.90;;;;;;2027880;29;20079;-73
2023/03/04 00:16:38;;;;;;;27.17;8.00;;;6.70;99.90;;;;;;2030013;29;20028;-73
2023/03/04 00:17:38;;;;;;;18.13;6.43;;;6.70;99.90;;;;;;2036712;29;20420;-73
2023/03/04 00:18:39;;;;;;;18.00;6.07;;;6.70;99.90;;;;;;2037735;29;20051;-73
2023/03/04 00:19:39;;;;;;;23.15;7.55;;;6.70;99.90;;;;;;2037293;29;20039;-73
2023/03/04 00:20:40;;;;;;;18.70;6.65;;;6.70;99.90;;;;;;2036522;29;20031;-73
2023/03/04 00:21:40;;;;;;;18.13;6.60;;;6.70;99.90;;;;;;2034802;29;20133;-73
2023/03/04 00:22:41;;;;;;;18.83;6.82;;;6.70;99.90;;;;;;2036185;29;20024;-73
2023/03/04 00:23:42;;;;;;;24.00;7.13;;;6.70;99.90;;;;;;2036996;29;20039;-73
2023/03/04 00:24:43;;;;;;;24.17;6.35;;;6.70;99.90;;;;;;2035431;29;20475;-73
2023/03/04 00:25:43;;;;;;;21.08;5.90;;;6.70;99.90;;;;;;2037908;29;20396;-73
2023/03/04 00:26:45;;;;;;;18.48;6.68;;;6.70;99.90;;;;;;2037531;29;20031;-73
2023/03/04 00:27:46;;;;;;;20.75;6.60;;;6.70;99.90;;;;;;2035963;29;20130;-73
2023/03/04 00:28:46;;;;;;;23.65;6.97;;;6.70;99.90;;;;;;2036518;29;20480;-73
2023/03/04 00:29:47;;;;;;;18.02;6.18;;;6.70;99.90;;;;;;2035350;29;20078;-73
2023/03/04 00:30:47;;;;;;;18.52;5.47;;;6.70;99.90;;;;;;2036089;29;20063;-73
2023/03/04 00:31:48;;;;;;;18.95;5.80;;;6.70;99.90;;;;;;2037063;29;20111;-73
2023/03/04 00:32:48;;;;;;;15.38;6.22;;;6.70;99.90;;;;;;2038256;29;20036;-73
2023/03/04 00:33:49;;;;;;;19.88;6.00;;;6.70;99.90;;;;;;2036988;29;20447;-73
2023/03/04 00:34:50;;;;;;;24.52;6.82;;;6.70;99.90;;;;;;2037430;29;20082;-73
2023/03/04 00:35:50;;;;;;;21.70;6.10;;;6.70;99.90;;;;;;2035493;29;20036;-73
2023/03/04 00:36:51;;;;;;;16.58;5.85;;;6.70;99.90;;;;;;2036636;29;20406;-73
2023/03/04 00:37:51;;;;;;;18.50;6.22;;;6.70;99.90;;;;;;2035897;29;20028;-73
2023/03/04 00:38:52;;;;;;;26.15;7.40;;;6.70;99.90;;;;;;2036636;29;20134;-73
2023/03/04 00:39:52;;;;;;;20.63;6.68;;;6.70;99.90;;;;;;2035871;29;20063;-73
2023/03/04 00:40:53;;;;;;;21.88;6.30;;;6.80;99.90;;;;;;2037432;29;20039;-73
2023/03/04 00:41:54;;;;;;;30.17;6.53;;;6.70;99.90;;;;;;2038167;29;20208;-73
2023/03/04 00:42:54;;;;;;;19.17;5.45;;;6.70;99.90;;;;;;2036594;29;20031;-73
2023/03/04 00:43:55;;;;;;;22.88;5.88;;;6.70;99.90;;;;;;2035293;29;20415;-74
2023/03/04 00:44:55;;;;;;;20.65;5.68;;;6.70;99.90;;;;;;2036460;29;20099;-73
2023/03/04 00:45:55;;;;;;;18.55;5.47;;;6.70;99.90;;;;;;2036963;29;20094;-73
2023/03/04 00:46:56;;;;;;;25.45;6.82;;;6.80;99.90;;;;;;2036854;29;20058;-73
2023/03/04 00:47:56;;;;;;;20.45;6.07;;;6.70;99.90;;;;;;2035660;29;20427;-73
2023/03/04 00:48:57;;;;;;;18.90;5.68;;;6.70;99.90;;;;;;2037677;29;20059;-73
2023/03/04 00:49:57;;;;;;;17.73;5.10;;;6.80;99.90;;;;;;2035391;29;20039;-73
2023/03/04 00:50:58;;;;;;;23.98;6.43;;;6.80;99.90;;;;;;2036432;29;20028;-73
2023/03/04 00:51:58;;;;;;;20.23;6.32;;;6.80;99.90;;;;;;2036052;29;20384;-73
2023/03/04 00:53:00;;;;;;;23.40;6.85;;;6.80;99.90;;;;;;2037786;29;20448;-73
2023/03/04 00:54:01;;;;;;;20.05;6.53;;;6.80;99.90;;;;;;2036394;29;20119;-73
2023/03/04 00:55:01;;;;;;;20.52;5.85;;;6.80;99.90;;;;;;2037438;29;20036;-73
2023/03/04 00:56:02;;;;;;;19.90;5.65;;;6.80;99.90;;;;;;2034835;29;20024;-73
2023/03/04 00:57:02;;;;;;;20.48;6.20;;;6.80;99.90;;;;;;2035985;29;20526;-73
2023/03/04 00:58:03;;;;;;;21.63;6.70;;;6.80;99.90;;;;;;2035330;29;20026;-73
2023/03/04 00:59:03;;;;;;;19.90;6.50;;;6.80;99.90;;;;;;2035354;29;20104;-73
2023/03/04 01:00:05;;;;;;;24.67;6.72;;;6.80;99.90;;;;;;2035344;29;20113;-73
2023/03/04 01:01:06;;;;;;;20.70;5.97;;;6.80;99.90;;;;;;2037564;29;20095;-73
2023/03/04 01:02:07;;;;;;;24.70;7.15;;;6.80;99.90;;;;;;2037767;29;20028;-73
2023/03/04 01:03:07;;;;;;;22.35;5.65;;;6.80;99.90;;;;;;2038638;29;20884;-73
2023/03/04 01:04:08;;;;;;;29.02;6.97;;;6.80;99.90;;;;;;2037930;29;20867;-73
2023/03/04 01:05:08;;;;;;;16.17;5.57;;;6.80;99.90;;;;;;2033744;29;20043;-73
2023/03/04 01:06:10;;;;;;;21.10;6.25;;;6.80;99.90;;;;;;2037516;29;20123;-73
2023/03/04 01:07:10;;;;;;;18.77;6.50;;;6.80;99.90;;;;;;2037072;29;20028;-73
2023/03/04 01:08:11;;;;;;;21.63;6.20;;;6.80;99.90;;;;;;2036582;29;20032;-73
2023/03/04 01:09:11;;;;;;;20.48;6.53;;;6.80;99.90;;;;;;2035998;29;20024;-73
2023/03/04 01:10:14;;;;;;;16.13;5.97;;;6.80;99.90;;;;;;2035874;29;20035;-73
2023/03/04 01:11:14;;;;;;;17.48;6.20;;;6.80;99.90;;;;;;2036062;29;20066;-73
2023/03/04 01:12:15;;;;;;;20.80;6.53;;;6.80;99.90;;;;;;2034205;29;20031;-73
2023/03/04 01:13:15;;;;;;;22.85;6.43;;;6.80;99.90;;;;;;2035923;29;20028;-73
2023/03/04 01:14:16;;;;;;;25.98;6.50;;;6.80;99.90;;;;;;2035947;29;20087;-73
2023/03/04 01:15:17;;;;;;;18.42;6.00;;;6.80;99.90;;;;;;2035548;29;20024;-73
2023/03/04 01:16:17;;;;;;;15.00;5.90;;;6.80;99.90;;;;;;2035914;29;20536;-73
2023/03/04 01:17:18;;;;;;;19.17;6.68;;;6.80;99.90;;;;;;2037064;29;20051;-73
2023/03/04 01:18:18;;;;;;;23.60;6.60;;;6.80;99.90;;;;;;2036055;29;20139;-73
2023/03/04 01:19:19;;;;;;;19.50;6.40;;;6.80;99.90;;;;;;2037361;29;20042;-73
2023/03/04 01:20:20;;;;;;;14.77;6.45;;;6.80;99.90;;;;;;2033982;29;20131;-73
2023/03/04 01:21:20;;;;;;;16.92;6.68;;;6.80;99.90;;;;;;2035866;29;20119;-73
2023/03/04 01:22:21;;;;;;;17.90;5.90;;;6.80;99.90;;;;;;2037557;29;20027;-73
2023/03/04 01:23:21;;;;;;;18.83;6.07;;;6.80;99.90;;;;;;2037520;29;20440;-73
2023/03/04 01:24:22;;;;;;;33.95;6.60;;;6.80;99.90;;;;;;2035006;29;20346;-73
2023/03/04 01:25:22;;;;;;;21.45;7.00;;;6.80;99.90;;;;;;2036621;29;20039;-73
2023/03/04 01:26:23;;;;;;;20.88;7.30;;;6.80;99.90;;;;;;2036277;29;20500;-73
2023/03/04 01:27:23;;;;;;;21.42;6.22;;;6.80;99.90;;;;;;2035803;29;20816;-73
2023/03/04 01:28:24;;;;;;;24.85;6.38;;;6.80;99.90;;;;;;2037431;29;20035;-73
2023/03/04 01:29:25;;;;;;;18.60;6.05;;;6.80;99.90;;;;;;2036052;29;20036;-73
2023/03/04 01:30:25;;;;;;;20.65;6.28;;;6.80;99.90;;;;;;2037241;29;20487;-73
2023/03/04 01:31:26;;;;;;;15.55;6.07;;;6.80;99.90;;;;;;2035857;29;20028;-73
2023/03/04 01:32:26;;;;;;;18.88;5.72;;;6.80;99.90;;;;;;2035709;29;20369;-73
2023/03/04 01:33:27;;;;;;;19.55;5.10;;;6.80;99.90;;;;;;2037001;29;20116;-73
2023/03/04 01:34:27;;;;;;;19.95;5.22;;;6.80;99.90;;;;;;2035519;29;20063;-73
2023/03/04 01:35:28;;;;;;;15.45;6.05;;;6.80;99.90;;;;;;2036648;29;20023;-73
2023/03/04 01:36:28;;;;;;;19.60;6.07;;;6.80;99.90;;;;;;2036730;29;20023;-73
2023/03/04 01:37:29;;;;;;;24.30;7.03;;;6.80;99.90;;;;;;2029259;29;20689;-73
2023/03/04 01:38:29;;;;;;;28.30;8.07;;;6.80;99.90;;;;;;2029900;29;20020;-73
2023/03/04 01:39:30;;;;;;;24.58;7.82;;;6.80;99.90;;;;;;2035130;29;20036;-73
2023/03/04 01:40:31;;;;;;;23.88;7.15;;;6.80;99.90;;;;;;2034519;29;20024;-73
2023/03/04 01:41:31;;;;;;;25.30;6.15;;;6.80;99.90;;;;;;2036418;29;20038;-73
2023/03/04 01:42:34;;;;;;;18.35;5.70;;;6.80;99.90;;;;;;2034958;29;20415;-73
2023/03/04 01:43:36;;;;;;;25.38;5.43;;;6.80;99.90;;;;;;2043966;28;20035;-73
2023/03/04 01:44:37;;;;;;;25.17;6.03;;;6.80;99.90;;;;;;2044776;28;20031;-73
2023/03/04 01:45:37;;;;;;;24.35;5.57;;;6.80;99.90;;;;;;2036374;29;20035;-73
2023/03/04 01:46:42;;;;;;;21.33;5.65;;;6.80;99.90;;;;;;2037898;29;20115;-73
2023/03/04 01:47:47;;;;;;;22.13;5.65;;;6.80;99.90;;;;;;2037080;29;20023;-73
2023/03/04 01:48:48;;;;;;;24.67;5.13;;;6.80;99.90;;;;;;2037994;29;20118;-73
2023/03/04 01:49:54;;;;;;;18.42;5.10;;;6.80;99.90;;;;;;2026176;29;20095;-73
2023/03/04 01:50:55;;;;;;;22.20;4.95;;;6.80;99.90;;;;;;2028594;29;20028;-73
2023/03/04 01:51:55;;;;;;;16.23;4.93;;;6.80;99.90;;;;;;2034426;29;20024;-73
2023/03/04 01:52:56;;;;;;;17.25;5.15;;;6.80;99.90;;;;;;2036791;29;20063;-73
2023/03/04 01:53:56;;;;;;;25.02;5.35;;;6.80;99.90;;;;;;2035840;29;20023;-73
2023/03/04 01:54:57;;;;;;;17.90;4.75;;;6.80;99.90;;;;;;2036098;29;20036;-73
2023/03/04 01:56:10;;;;;;;19.63;4.20;;;6.80;99.90;;;;;;2028791;29;20119;-73
2023/03/04 01:57:21;;;;;;;25.50;5.10;;;6.80;99.90;;;;;;2031281;29;20024;-73
2023/03/04 01:58:27;;;;;;;18.75;5.28;;;6.80;99.90;;;;;;2036451;29;20588;-73
2023/03/04 01:59:30;;;;;;;18.92;5.47;;;6.80;99.90;;;;;;2035318;29;20423;-73
2023/03/04 02:00:33;;;;;;;23.73;6.15;;;6.80;99.90;;;;;;2036740;29;20036;-73
2023/03/04 02:01:34;;;;;;;21.40;5.93;;;6.80;99.90;;;;;;2036783;29;20840;-73
2023/03/04 02:02:34;;;;;;;26.98;5.45;;;6.80;99.90;;;;;;2036833;29;20119;-73
2023/03/04 02:03:35;;;;;;;16.70;5.25;;;6.90;99.90;;;;;;2036147;29;20075;-73
2023/03/04 02:04:36;;;;;;;22.58;5.53;;;6.90;99.90;;;;;;2036089;29;20542;-73
2023/03/04 02:05:39;;;;;;;27.63;5.68;;;6.90;99.90;;;;;;2027008;29;20020;-73
2023/03/04 02:06:41;;;;;;;24.95;6.22;;;6.90;99.90;;;;;;2028583;29;20555;-73
2023/03/04 02:07:42;;;;;;;18.05;5.30;;;6.90;99.90;;;;;;2036919;29;20416;-73
2023/03/04 02:08:42;;;;;;;17.48;4.93;;;6.90;99.90;;;;;;2035285;29;20035;-73
2023/03/04 02:09:43;;;;;;;22.95;6.25;;;6.90;99.90;;;;;;2035719;29;20028;-73
2023/03/04 02:10:44;;;;;;;22.42;5.30;;;6.90;99.90;;;;;;2035880;29;20118;-73
2023/03/04 02:11:46;;;;;;;24.17;5.53;;;6.90;99.90;;;;;;2035441;29;20040;-73
2023/03/04 02:12:47;;;;;;;15.48;4.72;;;6.90;99.90;;;;;;2035625;29;20042;-73
2023/03/04 02:13:47;;;;;;;22.55;5.22;;;6.90;99.90;;;;;;2037129;29;20527;-73
2023/03/04 02:14:48;;;;;;;18.80;5.43;;;6.90;99.90;;;;;;2035728;29;20035;-73
2023/03/04 02:15:48;;;;;;;16.10;4.80;;;6.90;99.90;;;;;;2036969;29;20395;-73
2023/03/04 02:16:49;;;;;;;18.48;4.70;;;7.00;99.90;;;;;;2035125;29;20400;-73
2023/03/04 02:17:50;;;;;;;18.73;5.53;;;6.90;99.90;;;;;;2035631;29;20031;-73
2023/03/04 02:18:51;;;;;;;19.13;5.25;;;6.90;99.90;;;;;;2036345;29;20439;-73
2023/03/04 02:20:06;;;;;;;20.17;5.80;;;6.90;99.90;;;;;;2032760;29;20053;-73
2023/03/04 02:21:06;;;;;;;26.42;5.80;;;6.90;99.90;;;;;;2037119;29;20040;-73
2023/03/04 02:22:07;;;;;;;22.52;5.72;;;6.90;99.90;;;;;;2035511;29;20032;-73
2023/03/04 02:23:24;;;;;;;26.38;6.97;;;6.90;99.90;;;;;;2028246;29;20023;-73
2023/03/04 02:24:30;;;;;;;20.05;5.25;;;6.90;99.90;;;;;;2030265;29;20032;-73
2023/03/04 02:25:38;;;;;;;20.13;6.00;;;6.90;99.90;;;;;;2034839;29;20035;-73
2023/03/04 02:26:42;;;;;;;22.80;5.07;;;6.90;99.90;;;;;;2037032;29;20825;-73
2023/03/04 02:27:42;;;;;;;22.35;6.25;;;6.90;99.90;;;;;;2029130;29;20025;-73
2023/03/04 02:28:44;;;;;;;24.75;5.38;;;6.90;99.90;;;;;;2028708;29;20119;-73
2023/03/04 02:29:45;;;;;;;19.40;4.85;;;6.90;99.90;;;;;;2036001;29;20094;-73
2023/03/04 02:30:45;;;;;;;19.15;5.38;;;6.90;99.90;;;;;;2034161;29;20039;-73
2023/03/04 02:31:48;;;;;;;25.95;5.75;;;6.90;99.90;;;;;;2035966;29;20036;-73
2023/03/04 02:32:48;;;;;;;22.77;5.60;;;6.90;99.90;;;;;;2033463;29;20036;-73
2023/03/04 02:33:50;;;;;;;22.33;5.10;;;6.90;99.90;;;;;;2033703;29;20072;-73
2023/03/04 02:34:51;;;;;;;17.20;4.97;;;6.90;99.90;;;;;;2034712;29;20028;-73
2023/03/04 02:35:51;;;;;;;23.13;5.97;;;6.90;99.90;;;;;;2036719;29;20060;-73
2023/03/04 02:36:53;;;;;;;21.75;4.55;;;6.90;99.90;;;;;;2036905;29;20102;-73
2023/03/04 02:37:54;;;;;;;22.67;5.03;;;6.90;99.90;;;;;;2035237;29;20042;-73
2023/03/04 02:39:00;;;;;;;19.20;4.50;;;6.90;99.90;;;;;;2036140;29;20041;-73
2023/03/04 02:40:00;;;;;;;23.88;5.53;;;6.90;99.90;;;;;;2040686;28;20032;-73
2023/03/04 02:41:02;;;;;;;21.25;4.75;;;6.90;99.90;;;;;;2042978;28;20123;-73
2023/03/04 02:42:03;;;;;;;16.88;4.25;;;6.90;99.90;;;;;;2035827;29;20043;-73
2023/03/04 02:43:03;;;;;;;23.65;6.00;;;6.90;99.90;;;;;;2034980;29;20071;-73
2023/03/04 02:44:15;;;;;;;21.92;5.45;;;6.90;99.90;;;;;;2036090;29;20032;-73
2023/03/04 02:45:49;;;;;;;23.27;5.25;;;6.90;99.90;;;;;;2038233;29;20451;-73
2023/03/04 02:46:50;;;;;;;18.55;4.55;;;6.90;99.90;;;;;;2011838;29;20552;-73
2023/03/04 02:47:50;;;;;;;19.60;4.93;;;6.90;99.90;;;;;;2029958;29;20076;-73
2023/03/04 02:48:51;;;;;;;18.38;4.93;;;6.90;99.90;;;;;;2035471;29;20028;-73
2023/03/04 02:49:52;;;;;;;19.08;4.18;;;6.90;99.90;;;;;;2035035;29;20039;-73
2023/03/04 02:50:53;;;;;;;21.75;5.50;;;6.90;99.90;;;;;;2025498;29;20032;-73
2023/03/04 02:52:05;;;;;;;22.33;5.90;;;6.90;99.90;;;;;;2028075;29;20036;-73
2023/03/04 02:53:06;;;;;;;16.30;4.90;;;6.90;99.90;;;;;;2034277;29;20023;-73
2023/03/04 02:54:21;;;;;;;26.40;6.07;;;6.90;99.90;;;;;;2034167;29;20062;-73
2023/03/04 02:55:22;;;;;;;31.88;5.95;;;6.90;99.90;;;;;;2036123;29;20053;-73
2023/03/04 02:56:22;;;;;;;18.48;5.20;;;6.90;99.90;;;;;;2034897;29;20027;-73
2023/03/04 02:57:23;;;;;;;25.33;5.70;;;6.90;99.90;;;;;;2034921;29;20035;-73
2023/03/04 02:58:23;;;;;;;27.83;6.35;;;6.90;99.90;;;;;;2037029;29;20028;-73
2023/03/04 02:59:24;;;;;;;21.98;5.70;;;6.90;99.90;;;;;;2034084;29;20483;-73
2023/03/04 03:00:25;;;;;;;19.33;5.15;;;6.90;99.90;;;;;;2034418;29;20031;-73
2023/03/04 03:01:28;;;;;;;21.33;5.32;;;6.90;99.90;;;;;;2036406;29;20095;-73
2023/03/04 03:02:29;;;;;;;23.02;5.38;;;6.90;99.90;;;;;;2036618;29;20031;-73
2023/03/04 03:03:29;;;;;;;19.95;5.70;;;6.90;99.90;;;;;;2027343;29;20038;-73
2023/03/04 03:04:30;;;;;;;22.05;5.53;;;6.90;99.90;;;;;;2027663;29;20068;-73
2023/03/04 03:05:32;;;;;;;20.80;5.45;;;7.00;99.90;;;;;;2036800;29;20023;-73
2023/03/04 03:06:33;;;;;;;18.88;5.10;;;6.90;99.90;;;;;;2034965;29;20483;-73
2023/03/04 03:07:34;;;;;;;29.13;5.53;;;6.90;99.90;;;;;;2036333;29;20414;-73
2023/03/04 03:08:34;;;;;;;25.58;5.78;;;7.00;99.90;;;;;;2036479;29;20099;-73
2023/03/04 03:09:35;;;;;;;28.25;5.75;;;7.00;99.90;;;;;;2036881;29;20031;-73
2023/03/04 03:10:35;;;;;;;16.80;4.97;;;7.00;99.90;;;;;;2036523;29;20039;-73
2023/03/04 03:11:36;;;;;;;19.90;5.18;;;6.90;99.90;;;;;;2040740;28;20030;-73
2023/03/04 03:12:37;;;;;;;25.13;4.75;;;7.00;99.90;;;;;;2044031;28;20460;-73
2023/03/04 03:13:37;;;;;;;19.50;5.10;;;6.90;99.90;;;;;;2036589;29;20028;-73
2023/03/04 03:14:38;;;;;;;24.60;5.45;;;7.00;99.90;;;;;;2036931;29;20035;-73
2023/03/04 03:15:41;;;;;;;20.92;5.85;;;6.90;99.90;;;;;;2036122;29;20099;-73
2023/03/04 03:16:42;;;;;;;18.38;5.40;;;7.00;99.90;;;;;;2029235;29;20036;-73
2023/03/04 03:17:43;;;;;;;17.67;4.45;;;7.00;99.90;;;;;;2036879;29;20034;-73
2023/03/04 03:18:44;;;;;;;21.23;6.07;;;7.00;99.90;;;;;;2044739;28;20137;-73
2023/03/04 03:19:44;;;;;;;18.52;5.32;;;7.00;99.90;;;;;;2037697;29;20044;-73
2023/03/04 03:20:45;;;;;;;22.10;5.47;;;6.90;99.90;;;;;;2037876;29;20097;-73
2023/03/04 03:21:45;;;;;;;19.42;5.00;;;7.00;99.90;;;;;;2038626;29;20467;-73
2023/03/04 03:22:46;;;;;;;25.15;5.68;;;7.00;99.90;;;;;;2030746;29;20392;-73
2023/03/04 03:23:46;;;;;;;22.45;5.80;;;7.00;99.90;;;;;;2031307;29;20179;-73
2023/03/04 03:24:47;;;;;;;18.63;5.38;;;7.00;99.90;;;;;;2037156;29;20466;-73
2023/03/04 03:25:47;;;;;;;21.77;5.18;;;7.00;99.90;;;;;;2037718;29;20031;-73
2023/03/04 03:26:48;;;;;;;19.50;5.10;;;7.00;99.90;;;;;;2038233;29;20035;-73
2023/03/04 03:27:48;;;;;;;22.58;5.20;;;6.90;99.90;;;;;;2039458;29;20066;-73
2023/03/04 03:28:49;;;;;;;16.58;4.47;;;6.90;99.90;;;;;;2036950;29;20032;-73
2023/03/04 03:29:50;;;;;;;22.40;5.28;;;6.90;99.90;;;;;;2038806;29;20047;-73
2023/03/04 03:30:50;;;;;;;20.65;5.35;;;6.90;99.90;;;;;;2039090;29;20087;-73
2023/03/04 03:31:50;;;;;;;22.67;7.15;;;6.90;99.90;;;;;;2031642;29;20059;-73
2023/03/04 03:32:51;;;;;;;16.40;5.07;;;6.90;99.90;;;;;;2030629;29;20039;-73
2023/03/04 03:33:52;;;;;;;25.02;5.68;;;6.90;99.90;;;;;;2039086;29;20055;-73
2023/03/04 03:34:52;;;;;;;21.05;5.75;;;6.90;99.90;;;;;;2039096;29;20028;-73
2023/03/04 03:35:53;;;;;;;23.25;5.03;;;6.90;99.90;;;;;;2028994;29;20119;-73
2023/03/04 03:36:54;;;;;;;20.00;5.72;;;6.90;99.90;;;;;;2029380;29;20060;-73
2023/03/04 03:37:54;;;;;;;16.67;4.80;;;6.90;99.90;;;;;;2038700;29;20064;-73
2023/03/04 03:38:55;;;;;;;18.15;5.22;;;6.90;99.90;;;;;;2037074;29;20056;-73
2023/03/04 03:39:55;;;;;;;21.27;4.80;;;6.90;99.90;;;;;;2038517;29;20027;-73
2023/03/04 03:40:56;;;;;;;23.08;5.28;;;6.90;99.90;;;;;;2035653;29;20043;-73
2023/03/04 03:41:56;;;;;;;17.35;5.10;;;6.90;99.90;;;;;;2040145;29;20023;-73
2023/03/04 03:42:57;;;;;;;18.90;4.65;;;6.90;99.90;;;;;;2037725;29;20036;-73
2023/03/04 03:43:57;;;;;;;23.58;6.28;;;6.90;99.90;;;;;;2037645;29;20023;-73
2023/03/04 03:44:58;;;;;;;22.15;4.90;;;6.90;99.90;;;;;;2037313;29;20020;-73
2023/03/04 03:45:58;;;;;;;19.30;6.05;;;6.90;99.90;;;;;;2035832;29;20130;-73
2023/03/04 03:46:59;;;;;;;19.38;5.78;;;6.90;99.90;;;;;;2036047;29;20689;-73
2023/03/04 03:47:59;;;;;;;21.42;5.30;;;6.90;99.90;;;;;;2037057;29;20749;-73
2023/03/04 03:49:00;;;;;;;19.05;5.40;;;6.90;99.90;;;;;;2038040;29;20055;-73
2023/03/04 03:50:01;;;;;;;22.42;5.57;;;7.00;99.90;;;;;;2037015;29;20447;-73
2023/03/04 03:51:02;;;;;;;19.00;5.13;;;6.90;99.90;;;;;;2038754;29;20024;-73
2023/03/04 03:52:02;;;;;;;20.60;5.30;;;6.90;99.90;;;;;;2030569;29;20021;-73
2023/03/04 03:53:03;;;;;;;16.92;5.10;;;7.00;99.90;;;;;;2029688;29;20093;-73
2023/03/04 03:54:04;;;;;;;16.83;5.65;;;7.00;99.90;;;;;;2038478;29;20059;-73
2023/03/04 03:55:05;;;;;;;21.35;5.57;;;7.00;99.90;;;;;;2038341;29;20035;-73
2023/03/04 03:56:06;;;;;;;19.52;5.35;;;6.90;99.90;;;;;;2038572;29;20032;-73
2023/03/04 03:57:06;;;;;;;16.67;5.10;;;6.90;99.90;;;;;;2039294;29;20027;-73
2023/03/04 03:58:07;;;;;;;19.33;4.97;;;7.00;99.90;;;;;;2038839;29;20844;-73
2023/03/04 03:59:08;;;;;;;17.60;5.03;;;7.00;99.90;;;;;;2038088;29;21274;-73
2023/03/04 04:00:09;;;;;;;22.17;5.20;;;6.90;99.90;;;;;;2038772;29;20447;-73
2023/03/04 04:01:10;;;;;;;18.00;5.75;;;6.90;99.90;;;;;;2039464;29;20092;-73
2023/03/04 04:02:10;;;;;;;14.23;4.35;;;6.90;99.90;;;;;;2037653;29;20040;-73
2023/03/04 04:03:14;;;;;;;20.55;4.93;;;6.90;99.90;;;;;;2038940;29;20163;-73
2023/03/04 04:04:15;;;;;;;21.73;5.20;;;6.90;99.90;;;;;;2037971;29;20059;-73
2023/03/04 04:05:16;;;;;;;18.85;4.68;;;6.90;99.90;;;;;;2038939;29;20031;-73
2023/03/04 04:06:16;;;;;;;20.45;4.63;;;6.90;99.90;;;;;;2038721;29;20403;-73
2023/03/04 04:07:17;;;;;;;20.35;4.97;;;6.90;99.90;;;;;;2038749;29;20020;-73
2023/03/04 04:08:17;;;;;;;17.83;4.15;;;6.90;99.90;;;;;;2038965;29;20134;-73
2023/03/04 04:09:18;;;;;;;17.23;4.60;;;6.90;99.90;;;;;;2037817;29;20031;-73
2023/03/04 04:10:20;;;;;;;18.77;4.68;;;6.90;99.90;;;;;;2037275;29;20592;-73
2023/03/04 04:11:20;;;;;;;17.50;4.22;;;6.90;99.90;;;;;;2036905;29;20034;-73
2023/03/04 04:12:21;;;;;;;17.25;4.13;;;6.90;99.90;;;;;;2036954;29;20590;-73
2023/03/04 04:13:21;;;;;;;13.38;3.70;;;6.90;99.90;;;;;;2039144;29;20404;-73
2023/03/04 04:14:22;;;;;;;18.48;4.07;;;6.90;99.90;;;;;;2036906;29;20028;-73
2023/03/04 04:15:22;;;;;;;19.50;3.67;;;6.90;99.90;;;;;;2039682;29;20023;-73
2023/03/04 04:16:23;;;;;;;18.38;4.63;;;6.90;99.90;;;;;;2038125;29;20031;-73
2023/03/04 04:17:23;;;;;;;16.13;4.03;;;6.80;99.90;;;;;;2039308;29;20039;-73
2023/03/04 04:18:24;;;;;;;17.17;4.75;;;6.90;99.90;;;;;;2030432;29;20574;-73
2023/03/04 04:19:25;;;;;;;19.40;4.70;;;6.90;99.90;;;;;;2029751;29;20491;-73
2023/03/04 04:20:26;;;;;;;14.35;3.63;;;6.90;99.90;;;;;;2037590;29;20028;-73
2023/03/04 04:21:26;;;;;;;19.05;3.53;;;6.90;99.90;;;;;;2037758;29;20020;-73
2023/03/04 04:22:27;;;;;;;14.15;3.85;;;6.90;99.90;;;;;;2036156;29;20507;-73
2023/03/04 04:23:27;;;;;;;19.63;4.30;;;6.90;99.90;;;;;;2038290;29;20364;-73
2023/03/04 04:24:28;;;;;;;17.02;3.63;;;6.90;99.90;;;;;;2037715;29;20562;-73
2023/03/04 04:25:28;;;;;;;17.90;3.85;;;6.90;99.90;;;;;;2035930;29;20581;-73
2023/03/04 04:26:29;;;;;;;17.42;3.75;;;6.90;99.90;;;;;;2036683;29;20395;-73
2023/03/04 04:27:29;;;;;;;14.75;4.07;;;6.90;99.90;;;;;;2036780;29;20024;-73
2023/03/04 04:28:30;;;;;;;17.20;3.67;;;6.90;99.90;;;;;;2037531;29;20030;-73
2023/03/04 04:29:31;;;;;;;18.65;4.28;;;6.90;99.90;;;;;;2035895;29;20031;-73
2023/03/04 04:30:31;;;;;;;18.65;4.10;;;6.90;99.90;;;;;;2035061;29;20123;-73
2023/03/04 04:31:32;;;;;;;21.35;5.40;;;6.90;99.90;;;;;;2037233;29;20083;-73
2023/03/04 04:32:33;;;;;;;14.90;4.35;;;6.90;99.90;;;;;;2037456;29;20630;-73
2023/03/04 04:33:34;;;;;;;17.27;4.50;;;6.90;99.90;;;;;;2037782;29;21571;-73
2023/03/04 04:34:35;;;;;;;16.27;4.25;;;6.90;99.90;;;;;;2037808;29;20455;-73
2023/03/04 04:35:37;;;;;;;20.08;4.65;;;6.90;99.90;;;;;;2036094;29;20901;-73
2023/03/04 04:36:38;;;;;;;15.18;4.70;;;6.90;99.90;;;;;;2037038;29;20028;-73
2023/03/04 04:37:38;;;;;;;12.70;4.05;;;6.90;99.90;;;;;;2036907;29;20671;-74
2023/03/04 04:38:39;;;;;;;14.80;4.35;;;6.90;99.90;;;;;;2028999;29;20082;-73
2023/03/04 04:39:39;;;;;;;15.88;5.00;;;6.90;99.90;;;;;;2028175;29;20048;-73
2023/03/04 04:40:41;;;;;;;19.48;5.13;;;6.90;99.90;;;;;;2035713;29;20555;-73
2023/03/04 04:41:43;;;;;;;20.65;4.60;;;6.90;99.90;;;;;;2037155;29;20360;-73
2023/03/04 04:42:43;;;;;;;18.08;4.95;;;6.90;99.90;;;;;;2036771;29;20066;-73
2023/03/04 04:43:44;;;;;;;17.88;5.28;;;6.90;99.90;;;;;;2035686;29;20551;-73
2023/03/04 04:44:44;;;;;;;15.23;4.15;;;6.90;99.90;;;;;;2037536;29;20046;-73
2023/03/04 04:45:45;;;;;;;21.65;4.50;;;6.90;99.90;;;;;;2036721;29;20043;-73
2023/03/04 04:46:45;;;;;;;17.00;4.80;;;6.90;99.90;;;;;;2036013;29;20087;-73
2023/03/04 04:47:46;;;;;;;21.00;4.93;;;6.90;99.90;;;;;;2038062;29;20115;-73
2023/03/04 04:48:47;;;;;;;13.13;3.60;;;6.90;99.90;;;;;;2035926;29;20059;-73
2023/03/04 04:49:47;;;;;;;19.77;4.45;;;6.90;99.90;;;;;;2035385;29;20496;-73
2023/03/04 04:50:54;;;;;;;17.83;4.32;;;6.90;99.90;;;;;;2037973;29;20031;-73
2023/03/04 04:51:54;;;;;;;14.80;4.28;;;6.90;99.90;;;;;;2036226;29;20068;-73
2023/03/04 04:52:55;;;;;;;13.73;3.65;;;6.90;99.90;;;;;;2037599;29;20027;-73
2023/03/04 04:53:55;;;;;;;16.08;4.22;;;6.90;99.90;;;;;;2037655;29;20028;-73
2023/03/04 04:54:56;;;;;;;17.35;4.55;;;6.90;99.90;;;;;;2036635;29;21373;-73
2023/03/04 04:55:56;;;;;;;18.95;3.92;;;6.90;99.90;;;;;;2038355;29;20038;-73
2023/03/04 04:56:57;;;;;;;14.50;3.70;;;6.90;99.90;;;;;;2037456;29;20115;-73
2023/03/04 04:57:57;;;;;;;16.08;3.97;;;6.80;99.90;;;;;;2035250;29;20024;-73
2023/03/04 04:59:01;;;;;;;15.13;3.28;;;6.90;99.90;;;;;;2036905;29;20039;-73
2023/03/04 05:00:03;;;;;;;13.20;4.35;;;6.90;99.90;;;;;;2034500;29;20034;-73
2023/03/04 05:01:04;;;;;;;13.13;4.05;;;6.90;99.90;;;;;;2037868;29;20031;-73
2023/03/04 05:02:04;;;;;;;10.90;3.72;;;6.90;99.90;;;;;;2035106;29;20032;-73
2023/03/04 05:03:05;;;;;;;26.67;5.07;;;6.90;99.90;;;;;;2035763;29;20039;-73
2023/03/04 05:04:05;;;;;;;16.13;3.45;;;6.90;99.90;;;;;;2037563;29;20028;-73
2023/03/04 05:05:06;;;;;;;15.85;4.03;;;6.90;99.90;;;;;;2037611;29;20051;-73
2023/03/04 05:06:09;;;;;;;12.48;3.88;;;6.90;99.90;;;;;;2034772;29;20112;-71
2023/03/04 05:07:09;;;;;;;19.98;4.63;;;6.90;99.90;;;;;;2029229;29;20032;-73
2023/03/04 05:08:10;;;;;;;14.25;4.07;;;6.90;99.90;;;;;;2028092;29;20082;-73
2023/03/04 05:09:11;;;;;;;15.50;4.05;;;6.90;99.90;;;;;;2037908;29;20149;-73
2023/03/04 05:10:12;;;;;;;23.13;4.38;;;6.90;99.90;;;;;;2042785;28;20035;-73
2023/03/04 05:11:13;;;;;;;18.08;3.97;;;6.90;99.90;;;;;;2044135;28;20023;-73
2023/03/04 05:12:13;;;;;;;15.90;3.42;;;6.90;99.90;;;;;;2036902;29;20460;-73
2023/03/04 05:13:14;;;;;;;11.93;3.60;;;6.90;99.90;;;;;;2036534;29;20031;-73
2023/03/04 05:14:14;;;;;;;13.10;3.28;;;7.00;99.90;;;;;;2034717;29;20110;-73
2023/03/04 05:15:15;;;;;;;10.88;3.47;;;6.90;99.90;;;;;;2037001;29;20030;-73
2023/03/04 05:16:16;;;;;;;15.52;3.58;;;6.90;99.90;;;;;;2035380;29;20150;-73
2023/03/04 05:17:17;;;;;;;14.00;3.67;;;6.90;99.90;;;;;;2029431;29;20031;-73
2023/03/04 05:18:19;;;;;;;13.10;3.38;;;6.90;99.90;;;;;;2027832;29;20143;-73
2023/03/04 05:19:20;;;;;;;15.10;3.33;;;6.90;99.90;;;;;;2036650;29;20035;-73